sensor_id;sensor_type;location;lat;lon;timestamp;pressure;altitude;pressure_sealevel;temperature;humidity
27840;BME280;15207;42.182;24.308;2023-06-26T00:02:14;98763.50;;;22.73;84.82
27840;BME280;15207;42.182;24.308;2023-06-26T00:04:45;98765.81;;;22.76;84.71
27840;BME280;15207;42.182;24.308;2023-06-26T00:07:10;98766.66;;;22.77;84.69
27840;BME280;15207;42.182;24.308;2023-06-26T00:09:36;98755.13;;;22.75;84.87
27840;BME280;15207;42.182;24.308;2023-06-26T00:12:02;98768.16;;;22.72;85.24
27840;BME280;15207;42.182;24.308;2023-06-26T00:14:28;98762.31;;;22.62;86.04
27840;BME280;15207;42.182;24.308;2023-06-26T00:16:54;98766.72;;;22.56;86.56
27840;BME280;15207;42.182;24.308;2023-06-26T00:19:19;98769.84;;;22.53;87.75
27840;BME280;15207;42.182;24.308;2023-06-26T00:21:45;98767.97;;;22.54;87.94
27840;BME280;15207;42.182;24.308;2023-06-26T00:24:12;98770.69;;;22.54;88.06
27840;BME280;15207;42.182;24.308;2023-06-26T00:26:38;98766.72;;;22.56;87.84
27840;BME280;15207;42.182;24.308;2023-06-26T00:29:04;98769.81;;;22.46;87.92
27840;BME280;15207;42.182;24.308;2023-06-26T00:31:30;98771.72;;;22.46;87.91
27840;BME280;15207;42.182;24.308;2023-06-26T00:33:55;98775.31;;;22.53;87.93
27840;BME280;15207;42.182;24.308;2023-06-26T00:36:21;98761.47;;;22.55;87.78
27840;BME280;15207;42.182;24.308;2023-06-26T00:38:48;98775.94;;;22.55;87.60
27840;BME280;15207;42.182;24.308;2023-06-26T00:41:14;98771.31;;;22.49;88.00
27840;BME280;15207;42.182;24.308;2023-06-26T00:43:40;98768.59;;;22.42;88.53
27840;BME280;15207;42.182;24.308;2023-06-26T00:46:08;98767.97;;;22.40;88.35
27840;BME280;15207;42.182;24.308;2023-06-26T00:48:34;98772.34;;;22.48;88.24
27840;BME280;15207;42.182;24.308;2023-06-26T00:50:59;98770.47;;;22.49;88.02
27840;BME280;15207;42.182;24.308;2023-06-26T00:53:25;98772.56;;;22.46;88.35
27840;BME280;15207;42.182;24.308;2023-06-26T00:55:51;98767.53;;;22.50;88.19
27840;BME280;15207;42.182;24.308;2023-06-26T00:58:17;98764.81;;;22.50;86.88
27840;BME280;15207;42.182;24.308;2023-06-26T01:00:42;98766.69;;;22.50;87.43
27840;BME280;15207;42.182;24.308;2023-06-26T01:03:11;98763.34;;;22.48;87.31
27840;BME280;15207;42.182;24.308;2023-06-26T01:05:37;98767.75;;;22.49;87.20
27840;BME280;15207;42.182;24.308;2023-06-26T01:08:03;98765.84;;;22.56;87.30
27840;BME280;15207;42.182;24.308;2023-06-26T01:10:30;98762.50;;;22.61;87.07
27840;BME280;15207;42.182;24.308;2023-06-26T01:12:57;98754.53;;;22.66;87.31
27840;BME280;15207;42.182;24.308;2023-06-26T01:15:22;98752.38;;;22.75;86.45
27840;BME280;15207;42.182;24.308;2023-06-26T01:17:49;98759.50;;;22.76;86.61
27840;BME280;15207;42.182;24.308;2023-06-26T01:20:16;98765.41;;;22.72;87.15
27840;BME280;15207;42.182;24.308;2023-06-26T01:23:12;98758.69;;;22.82;86.05
27840;BME280;15207;42.182;24.308;2023-06-26T01:28:38;98764.56;;;22.79;85.79
27840;BME280;15207;42.182;24.308;2023-06-26T01:31:05;98765.16;;;22.88;85.26
27840;BME280;15207;42.182;24.308;2023-06-26T01:33:32;98758.63;;;22.89;84.28
27840;BME280;15207;42.182;24.308;2023-06-26T01:35:58;98759.47;;;22.89;84.10
27840;BME280;15207;42.182;24.308;2023-06-26T01:38:23;98759.88;;;22.93;84.02
27840;BME280;15207;42.182;24.308;2023-06-26T01:40:50;98759.00;;;22.99;83.42
27840;BME280;15207;42.182;24.308;2023-06-26T01:43:27;98749.34;;;23.03;83.62
27840;BME280;15207;42.182;24.308;2023-06-26T01:45:58;98759.66;;;23.01;83.51
27840;BME280;15207;42.182;24.308;2023-06-26T01:48:30;98755.47;;;22.98;84.51
27840;BME280;15207;42.182;24.308;2023-06-26T01:50:58;98751.66;;;22.99;84.31
27840;BME280;15207;42.182;24.308;2023-06-26T01:53:31;98752.91;;;23.04;84.60
27840;BME280;15207;42.182;24.308;2023-06-26T01:56:06;98756.03;;;23.07;83.79
27840;BME280;15207;42.182;24.308;2023-06-26T01:58:33;98757.72;;;23.08;83.61
27840;BME280;15207;42.182;24.308;2023-06-26T02:01:00;98767.38;;;23.04;83.32
27840;BME280;15207;42.182;24.308;2023-06-26T02:03:26;98752.34;;;22.95;81.77
27840;BME280;15207;42.182;24.308;2023-06-26T02:05:51;98757.59;;;22.90;83.32
27840;BME280;15207;42.182;24.308;2023-06-26T02:08:17;98754.22;;;22.88;83.73
27840;BME280;15207;42.182;24.308;2023-06-26T02:10:42;98748.97;;;22.86;84.04
27840;BME280;15207;42.182;24.308;2023-06-26T02:13:08;98744.97;;;22.89;83.96
27840;BME280;15207;42.182;24.308;2023-06-26T02:15:33;98750.69;;;22.87;84.51
27840;BME280;15207;42.182;24.308;2023-06-26T02:17:59;98747.28;;;22.92;84.44
27840;BME280;15207;42.182;24.308;2023-06-26T02:20:24;98736.78;;;22.89;83.66
27840;BME280;15207;42.182;24.308;2023-06-26T02:22:50;98735.34;;;22.86;84.55
27840;BME280;15207;42.182;24.308;2023-06-26T02:25:15;98741.84;;;22.85;85.34
27840;BME280;15207;42.182;24.308;2023-06-26T02:27:41;98733.88;;;22.83;84.26
27840;BME280;15207;42.182;24.308;2023-06-26T02:30:08;98732.88;;;22.78;85.08
27840;BME280;15207;42.182;24.308;2023-06-26T02:32:34;98736.22;;;22.73;84.86
27840;BME280;15207;42.182;24.308;2023-06-26T02:35:00;98735.44;;;22.59;85.87
27840;BME280;15207;42.182;24.308;2023-06-26T02:37:26;98737.94;;;22.47;86.54
27840;BME280;15207;42.182;24.308;2023-06-26T02:39:51;98733.97;;;22.43;87.16
27840;BME280;15207;42.182;24.308;2023-06-26T02:42:17;98747.00;;;22.41;87.29
27840;BME280;15207;42.182;24.308;2023-06-26T02:44:42;98738.81;;;22.41;87.47
27840;BME280;15207;42.182;24.308;2023-06-26T02:47:08;98741.94;;;22.44;87.63
27840;BME280;15207;42.182;24.308;2023-06-26T02:49:33;98746.34;;;22.39;87.80
27840;BME280;15207;42.182;24.308;2023-06-26T02:51:59;98746.13;;;22.40;88.13
27840;BME280;15207;42.182;24.308;2023-06-26T02:54:24;98743.19;;;22.49;88.12
27840;BME280;15207;42.182;24.308;2023-06-26T02:56:50;98738.81;;;22.54;87.59
27840;BME280;15207;42.182;24.308;2023-06-26T02:59:15;98745.50;;;22.65;87.39
27840;BME280;15207;42.182;24.308;2023-06-26T03:01:41;98738.75;;;22.68;87.30
27840;BME280;15207;42.182;24.308;2023-06-26T03:04:06;98745.25;;;22.74;87.26
27840;BME280;15207;42.182;24.308;2023-06-26T03:06:32;98739.81;;;22.74;87.15
27840;BME280;15207;42.182;24.308;2023-06-26T03:08:57;98747.78;;;22.68;87.44
27840;BME280;15207;42.182;24.308;2023-06-26T03:11:23;98742.34;;;22.68;86.87
27840;BME280;15207;42.182;24.308;2023-06-26T03:13:48;98746.94;;;22.68;86.32
27840;BME280;15207;42.182;24.308;2023-06-26T03:16:14;98754.31;;;22.61;84.51
27840;BME280;15207;42.182;24.308;2023-06-26T03:18:39;98753.91;;;22.50;85.70
27840;BME280;15207;42.182;24.308;2023-06-26T03:21:05;98757.44;;;22.51;86.38
27840;BME280;15207;42.182;24.308;2023-06-26T03:23:31;98756.00;;;22.55;85.25
27840;BME280;15207;42.182;24.308;2023-06-26T03:25:56;98751.41;;;22.55;85.60
27840;BME280;15207;42.182;24.308;2023-06-26T03:28:22;98752.63;;;22.53;85.41
27840;BME280;15207;42.182;24.308;2023-06-26T03:30:47;98750.94;;;22.58;85.96
27840;BME280;15207;42.182;24.308;2023-06-26T03:33:13;98756.59;;;22.64;85.42
27840;BME280;15207;42.182;24.308;2023-06-26T03:35:38;98756.19;;;22.74;85.08
27840;BME280;15207;42.182;24.308;2023-06-26T03:38:05;98754.03;;;22.82;84.51
27840;BME280;15207;42.182;24.308;2023-06-26T03:40:31;98755.28;;;22.87;84.22
27840;BME280;15207;42.182;24.308;2023-06-26T03:42:56;98759.66;;;22.94;83.74
27840;BME280;15207;42.182;24.308;2023-06-26T03:45:22;98761.75;;;22.99;82.74
27840;BME280;15207;42.182;24.308;2023-06-26T03:47:47;98765.78;;;22.90;81.77
27840;BME280;15207;42.182;24.308;2023-06-26T03:50:18;98760.97;;;22.78;82.51
27840;BME280;15207;42.182;24.308;2023-06-26T03:52:44;98759.31;;;22.77;84.12
27840;BME280;15207;42.182;24.308;2023-06-26T03:55:10;98758.91;;;22.74;84.94
27840;BME280;15207;42.182;24.308;2023-06-26T03:57:35;98753.03;;;22.77;84.27
27840;BME280;15207;42.182;24.308;2023-06-26T04:00:01;98757.84;;;22.75;83.34
27840;BME280;15207;42.182;24.308;2023-06-26T04:02:27;98756.81;;;22.69;82.61
27840;BME280;15207;42.182;24.308;2023-06-26T04:04:52;98763.72;;;22.71;83.29
27840;BME280;15207;42.182;24.308;2023-06-26T04:07:18;98760.75;;;22.80;82.87
27840;BME280;15207;42.182;24.308;2023-06-26T04:09:44;98758.22;;;22.85;83.86
27840;BME280;15207;42.182;24.308;2023-06-26T04:12:10;98766.22;;;22.87;83.64
27840;BME280;15207;42.182;24.308;2023-06-26T04:14:35;98768.91;;;22.93;84.11
27840;BME280;15207;42.182;24.308;2023-06-26T04:17:01;98765.94;;;23.02;82.72
27840;BME280;15207;42.182;24.308;2023-06-26T04:19:30;98759.81;;;23.13;82.95
27840;BME280;15207;42.182;24.308;2023-06-26T04:21:56;98766.91;;;23.21;83.17
27840;BME280;15207;42.182;24.308;2023-06-26T04:24:21;98766.84;;;23.34;82.06
27840;BME280;15207;42.182;24.308;2023-06-26T04:26:47;98767.47;;;23.43;81.29
27840;BME280;15207;42.182;24.308;2023-06-26T04:29:12;98763.00;;;23.49;80.62
27840;BME280;15207;42.182;24.308;2023-06-26T04:31:38;98774.00;;;23.42;80.57
27840;BME280;15207;42.182;24.308;2023-06-26T04:34:04;98772.91;;;23.50;80.10
27840;BME280;15207;42.182;24.308;2023-06-26T04:36:30;98762.19;;;23.48;81.35
27840;BME280;15207;42.182;24.308;2023-06-26T04:38:57;98769.31;;;23.49;80.84
27840;BME280;15207;42.182;24.308;2023-06-26T04:41:22;98767.66;;;23.48;80.55
27840;BME280;15207;42.182;24.308;2023-06-26T04:43:48;98769.91;;;23.51;81.66
27840;BME280;15207;42.182;24.308;2023-06-26T04:46:14;98768.59;;;23.61;81.51
27840;BME280;15207;42.182;24.308;2023-06-26T04:48:39;98775.53;;;23.63;80.16
27840;BME280;15207;42.182;24.308;2023-06-26T04:51:05;98769.25;;;23.63;80.34
27840;BME280;15207;42.182;24.308;2023-06-26T04:53:31;98769.88;;;23.58;79.30
27840;BME280;15207;42.182;24.308;2023-06-26T04:55:56;98770.91;;;23.64;78.97
27840;BME280;15207;42.182;24.308;2023-06-26T04:58:22;98770.28;;;23.62;78.73
27840;BME280;15207;42.182;24.308;2023-06-26T05:00:47;98764.00;;;23.61;77.80
27840;BME280;15207;42.182;24.308;2023-06-26T05:03:15;98771.66;;;23.46;78.04
27840;BME280;15207;42.182;24.308;2023-06-26T05:05:42;98775.25;;;23.40;77.93
27840;BME280;15207;42.182;24.308;2023-06-26T05:08:18;98784.91;;;23.42;78.90
27840;BME280;15207;42.182;24.308;2023-06-26T05:10:44;98776.47;;;23.44;78.40
27840;BME280;15207;42.182;24.308;2023-06-26T05:13:10;98781.53;;;23.40;78.47
27840;BME280;15207;42.182;24.308;2023-06-26T05:15:36;98784.03;;;23.48;77.94
27840;BME280;15207;42.182;24.308;2023-06-26T05:18:02;98781.53;;;23.40;78.78
27840;BME280;15207;42.182;24.308;2023-06-26T05:20:28;98780.06;;;23.44;78.47
27840;BME280;15207;42.182;24.308;2023-06-26T05:22:54;98781.53;;;23.40;77.83
27840;BME280;15207;42.182;24.308;2023-06-26T05:25:20;98781.56;;;23.33;77.37
27840;BME280;15207;42.182;24.308;2023-06-26T05:27:47;98786.81;;;23.35;78.59
27840;BME280;15207;42.182;24.308;2023-06-26T05:30:13;98794.59;;;23.38;78.99
27840;BME280;15207;42.182;24.308;2023-06-26T05:32:40;98786.38;;;23.45;78.07
27840;BME280;15207;42.182;24.308;2023-06-26T05:35:06;98789.72;;;23.47;77.72
27840;BME280;15207;42.182;24.308;2023-06-26T05:37:33;98793.03;;;23.49;76.99
27840;BME280;15207;42.182;24.308;2023-06-26T05:40:00;98783.81;;;23.50;77.73
27840;BME280;15207;42.182;24.308;2023-06-26T05:42:27;98794.28;;;23.53;77.87
27840;BME280;15207;42.182;24.308;2023-06-26T05:44:56;98795.94;;;23.61;79.51
27840;BME280;15207;42.182;24.308;2023-06-26T05:47:22;98795.63;;;23.76;79.08
27840;BME280;15207;42.182;24.308;2023-06-26T05:49:48;98798.53;;;23.81;77.39
27840;BME280;15207;42.182;24.308;2023-06-26T05:52:14;98804.44;;;23.78;78.02
27840;BME280;15207;42.182;24.308;2023-06-26T05:54:40;98794.56;;;23.77;78.51
27840;BME280;15207;42.182;24.308;2023-06-26T05:57:05;98801.84;;;23.90;78.43
27840;BME280;15207;42.182;24.308;2023-06-26T05:59:31;98798.22;;;23.96;76.63
27840;BME280;15207;42.182;24.308;2023-06-26T06:01:57;98798.38;;;24.01;75.48
27840;BME280;15207;42.182;24.308;2023-06-26T06:04:23;98800.88;;;24.10;76.48
27840;BME280;15207;42.182;24.308;2023-06-26T06:06:48;98802.88;;;24.21;76.62
27840;BME280;15207;42.182;24.308;2023-06-26T06:09:14;98797.91;;;24.37;76.79
27840;BME280;15207;42.182;24.308;2023-06-26T06:11:40;98792.69;;;24.54;76.42
27840;BME280;15207;42.182;24.308;2023-06-26T06:14:06;98795.03;;;24.76;75.99
27840;BME280;15207;42.182;24.308;2023-06-26T06:16:31;98793.06;;;25.02;71.96
27840;BME280;15207;42.182;24.308;2023-06-26T06:18:57;98790.84;;;25.29;70.26
27840;BME280;15207;42.182;24.308;2023-06-26T06:21:22;98779.88;;;25.29;68.49
27840;BME280;15207;42.182;24.308;2023-06-26T06:23:48;98777.56;;;25.64;68.73
27840;BME280;15207;42.182;24.308;2023-06-26T06:26:14;98777.50;;;25.94;64.97
27840;BME280;15207;42.182;24.308;2023-06-26T06:28:39;98777.16;;;26.02;64.87
27840;BME280;15207;42.182;24.308;2023-06-26T06:31:05;98772.41;;;26.22;64.09
27840;BME280;15207;42.182;24.308;2023-06-26T06:33:30;98767.41;;;26.43;63.03
27840;BME280;15207;42.182;24.308;2023-06-26T06:35:56;98765.28;;;26.69;62.40
27840;BME280;15207;42.182;24.308;2023-06-26T06:38:22;98761.91;;;27.02;62.65
27840;BME280;15207;42.182;24.308;2023-06-26T06:40:48;98766.47;;;27.26;60.46
27840;BME280;15207;42.182;24.308;2023-06-26T06:43:13;98757.03;;;27.51;59.73
27840;BME280;15207;42.182;24.308;2023-06-26T06:45:39;98759.66;;;27.57;56.90
27840;BME280;15207;42.182;24.308;2023-06-26T06:48:05;98757.84;;;27.63;56.78
27840;BME280;15207;42.182;24.308;2023-06-26T06:50:31;98756.72;;;27.47;53.59
27840;BME280;15207;42.182;24.308;2023-06-26T06:52:56;98764.91;;;27.30;54.00
27840;BME280;15207;42.182;24.308;2023-06-26T06:55:22;98775.19;;;27.52;56.30
27840;BME280;15207;42.182;24.308;2023-06-26T06:57:49;98767.78;;;27.64;55.25
27840;BME280;15207;42.182;24.308;2023-06-26T07:00:15;98769.78;;;27.86;54.71
27840;BME280;15207;42.182;24.308;2023-06-26T07:02:45;98772.22;;;27.99;54.02
27840;BME280;15207;42.182;24.308;2023-06-26T07:05:11;98769.72;;;27.98;52.71
27840;BME280;15207;42.182;24.308;2023-06-26T07:07:38;98774.88;;;27.77;52.47
27840;BME280;15207;42.182;24.308;2023-06-26T07:10:06;98773.88;;;27.54;53.67
27840;BME280;15207;42.182;24.308;2023-06-26T07:12:32;98770.84;;;27.39;54.40
27840;BME280;15207;42.182;24.308;2023-06-26T07:15:00;98783.09;;;27.19;54.13
27840;BME280;15207;42.182;24.308;2023-06-26T07:17:26;98771.91;;;27.09;54.47
27840;BME280;15207;42.182;24.308;2023-06-26T07:19:51;98773.88;;;27.25;55.16
27840;BME280;15207;42.182;24.308;2023-06-26T07:22:17;98775.69;;;27.49;55.11
27840;BME280;15207;42.182;24.308;2023-06-26T07:24:48;98767.69;;;27.76;54.17
27840;BME280;15207;42.182;24.308;2023-06-26T07:27:17;98777.19;;;27.85;53.99
27840;BME280;15207;42.182;24.308;2023-06-26T07:29:44;98775.22;;;27.98;52.91
27840;BME280;15207;42.182;24.308;2023-06-26T07:32:10;98779.06;;;27.97;51.68
27840;BME280;15207;42.182;24.308;2023-06-26T07:34:36;98787.88;;;27.99;51.63
27840;BME280;15207;42.182;24.308;2023-06-26T07:37:01;98776.63;;;28.01;51.42
27840;BME280;15207;42.182;24.308;2023-06-26T07:39:27;98776.50;;;28.24;51.27
27840;BME280;15207;42.182;24.308;2023-06-26T07:41:52;98777.84;;;28.39;50.46
27840;BME280;15207;42.182;24.308;2023-06-26T07:44:18;98777.78;;;28.56;49.38
27840;BME280;15207;42.182;24.308;2023-06-26T07:46:43;98779.53;;;28.62;50.31
27840;BME280;15207;42.182;24.308;2023-06-26T07:49:10;98775.84;;;28.74;49.38
27840;BME280;15207;42.182;24.308;2023-06-26T07:51:36;98775.84;;;28.74;49.08
27840;BME280;15207;42.182;24.308;2023-06-26T07:54:01;98783.03;;;28.58;48.47
27840;BME280;15207;42.182;24.308;2023-06-26T07:56:27;98786.81;;;28.51;49.82
27840;BME280;15207;42.182;24.308;2023-06-26T07:58:53;98784.69;;;28.59;49.46
27840;BME280;15207;42.182;24.308;2023-06-26T08:01:18;98782.25;;;28.80;49.19
27840;BME280;15207;42.182;24.308;2023-06-26T08:03:44;98783.56;;;28.94;47.60
27840;BME280;15207;42.182;24.308;2023-06-26T08:06:10;98787.47;;;28.98;47.31
27840;BME280;15207;42.182;24.308;2023-06-26T08:08:35;98789.34;;;28.93;48.23
27840;BME280;15207;42.182;24.308;2023-06-26T08:11:01;98785.94;;;29.08;47.71
27840;BME280;15207;42.182;24.308;2023-06-26T08:13:26;98777.22;;;29.16;47.32
27840;BME280;15207;42.182;24.308;2023-06-26T08:15:52;98788.44;;;29.09;47.23
27840;BME280;15207;42.182;24.308;2023-06-26T08:18:18;98775.63;;;29.20;46.41
27840;BME280;15207;42.182;24.308;2023-06-26T08:20:43;98775.63;;;29.20;47.33
27840;BME280;15207;42.182;24.308;2023-06-26T08:23:09;98779.72;;;29.40;47.54
27840;BME280;15207;42.182;24.308;2023-06-26T08:25:35;98775.25;;;29.39;46.84
27840;BME280;15207;42.182;24.308;2023-06-26T08:28:01;98781.63;;;29.39;46.47
27840;BME280;15207;42.182;24.308;2023-06-26T08:30:27;98780.97;;;29.54;47.20
27840;BME280;15207;42.182;24.308;2023-06-26T08:32:56;98781.94;;;29.43;46.28
27840;BME280;15207;42.182;24.308;2023-06-26T08:35:21;98781.75;;;29.50;47.13
27840;BME280;15207;42.182;24.308;2023-06-26T08:37:47;98775.59;;;29.65;48.44
27840;BME280;15207;42.182;24.308;2023-06-26T08:40:17;98778.69;;;29.74;46.04
27840;BME280;15207;42.182;24.308;2023-06-26T08:42:44;98780.88;;;29.49;47.12
27840;BME280;15207;42.182;24.308;2023-06-26T08:45:10;98777.16;;;29.55;47.59
27840;BME280;15207;42.182;24.308;2023-06-26T08:47:37;98776.16;;;29.67;47.33
27840;BME280;15207;42.182;24.308;2023-06-26T08:50:12;98774.03;;;29.79;45.25
27840;BME280;15207;42.182;24.308;2023-06-26T08:55:35;98759.38;;;29.74;46.13
27840;BME280;15207;42.182;24.308;2023-06-26T08:58:04;98758.44;;;29.63;44.16
27840;BME280;15207;42.182;24.308;2023-06-26T09:00:30;98763.41;;;29.61;46.88
27840;BME280;15207;42.182;24.308;2023-06-26T09:02:56;98751.97;;;29.79;46.96
27840;BME280;15207;42.182;24.308;2023-06-26T09:05:22;98745.09;;;29.82;45.39
27840;BME280;15207;42.182;24.308;2023-06-26T09:07:48;98743.91;;;29.67;43.59
27840;BME280;15207;42.182;24.308;2023-06-26T09:10:14;98745.72;;;29.56;45.76
27840;BME280;15207;42.182;24.308;2023-06-26T09:12:40;98744.06;;;29.55;45.56
27840;BME280;15207;42.182;24.308;2023-06-26T09:15:07;98750.63;;;29.54;46.77
27840;BME280;15207;42.182;24.308;2023-06-26T09:17:38;98729.72;;;29.59;45.65
27840;BME280;15207;42.182;24.308;2023-06-26T09:20:06;98744.66;;;29.63;46.37
27840;BME280;15207;42.182;24.308;2023-06-26T09:22:35;98734.72;;;29.62;46.79
27840;BME280;15207;42.182;24.308;2023-06-26T09:25:02;98748.16;;;29.53;46.81
27840;BME280;15207;42.182;24.308;2023-06-26T09:27:28;98751.13;;;29.74;45.23
27840;BME280;15207;42.182;24.308;2023-06-26T09:29:53;98743.72;;;29.52;46.02
27840;BME280;15207;42.182;24.308;2023-06-26T09:32:24;98739.91;;;29.53;47.03
27840;BME280;15207;42.182;24.308;2023-06-26T09:34:52;98738.13;;;29.74;46.83
27840;BME280;15207;42.182;24.308;2023-06-26T09:37:20;98739.66;;;29.87;44.62
27840;BME280;15207;42.182;24.308;2023-06-26T09:39:45;98730.16;;;29.73;44.52
27840;BME280;15207;42.182;24.308;2023-06-26T09:42:13;98748.44;;;29.84;45.15
27840;BME280;15207;42.182;24.308;2023-06-26T09:44:49;98748.66;;;29.77;46.26
27840;BME280;15207;42.182;24.308;2023-06-26T09:47:18;98728.03;;;29.85;44.53
27840;BME280;15207;42.182;24.308;2023-06-26T09:49:44;98739.59;;;29.82;43.90
27840;BME280;15207;42.182;24.308;2023-06-26T09:52:16;98730.63;;;29.97;42.85
27840;BME280;15207;42.182;24.308;2023-06-26T09:54:46;98737.56;;;30.05;42.68
27840;BME280;15207;42.182;24.308;2023-06-26T09:57:13;98732.75;;;30.17;42.63
27840;BME280;15207;42.182;24.308;2023-06-26T09:59:40;98726.78;;;30.36;41.97
27840;BME280;15207;42.182;24.308;2023-06-26T10:02:06;98709.66;;;30.34;41.38
27840;BME280;15207;42.182;24.308;2023-06-26T10:04:32;98716.09;;;30.50;41.77
27840;BME280;15207;42.182;24.308;2023-06-26T10:07:01;98713.97;;;30.68;42.43
27840;BME280;15207;42.182;24.308;2023-06-26T10:09:29;98713.78;;;30.85;42.73
27840;BME280;15207;42.182;24.308;2023-06-26T10:12:02;98706.66;;;30.99;42.38
27840;BME280;15207;42.182;24.308;2023-06-26T10:14:35;98714.94;;;30.94;41.43
27840;BME280;15207;42.182;24.308;2023-06-26T10:17:06;98702.47;;;30.81;40.03
27840;BME280;15207;42.182;24.308;2023-06-26T10:19:33;98713.41;;;30.66;41.85
27840;BME280;15207;42.182;24.308;2023-06-26T10:22:02;98708.41;;;30.62;41.21
27840;BME280;15207;42.182;24.308;2023-06-26T10:24:32;98705.19;;;30.76;41.67
27840;BME280;15207;42.182;24.308;2023-06-26T10:27:04;98700.00;;;30.90;41.54
27840;BME280;15207;42.182;24.308;2023-06-26T10:29:34;98690.97;;;30.57;41.99
27840;BME280;15207;42.182;24.308;2023-06-26T10:32:02;98687.91;;;30.48;42.94
27840;BME280;15207;42.182;24.308;2023-06-26T10:34:29;98695.03;;;30.39;43.83
27840;BME280;15207;42.182;24.308;2023-06-26T10:36:59;98691.28;;;30.55;43.96
27840;BME280;15207;42.182;24.308;2023-06-26T10:39:26;98678.22;;;30.45;42.78
27840;BME280;15207;42.182;24.308;2023-06-26T10:41:54;98681.53;;;30.42;41.54
27840;BME280;15207;42.182;24.308;2023-06-26T10:44:20;98679.34;;;30.44;41.89
27840;BME280;15207;42.182;24.308;2023-06-26T10:46:55;98676.84;;;30.43;41.29
27840;BME280;15207;42.182;24.308;2023-06-26T10:49:29;98668.19;;;30.24;41.64
27840;BME280;15207;42.182;24.308;2023-06-26T10:51:55;98658.81;;;30.25;40.54
27840;BME280;15207;42.182;24.308;2023-06-26T10:54:28;98667.97;;;30.35;42.32
27840;BME280;15207;42.182;24.308;2023-06-26T10:56:55;98675.44;;;30.40;42.65
27840;BME280;15207;42.182;24.308;2023-06-26T10:59:26;98680.75;;;30.52;40.66
27840;BME280;15207;42.182;24.308;2023-06-26T11:02:02;98682.47;;;30.69;42.26
27840;BME280;15207;42.182;24.308;2023-06-26T11:04:38;98672.78;;;30.61;40.28
27840;BME280;15207;42.182;24.308;2023-06-26T11:07:24;98673.88;;;30.55;41.43
27840;BME280;15207;42.182;24.308;2023-06-26T11:10:00;98676.72;;;30.70;41.51
27840;BME280;15207;42.182;24.308;2023-06-26T11:15:07;98665.22;;;30.35;41.61
27840;BME280;15207;42.182;24.308;2023-06-26T11:17:33;98664.59;;;30.23;41.34
27840;BME280;15207;42.182;24.308;2023-06-26T11:20:00;98667.59;;;30.21;41.55
27840;BME280;15207;42.182;24.308;2023-06-26T11:22:26;98658.78;;;30.19;40.01
27840;BME280;15207;42.182;24.308;2023-06-26T11:24:53;98659.13;;;30.33;41.25
27840;BME280;15207;42.182;24.308;2023-06-26T11:27:19;98660.00;;;30.39;40.68
27840;BME280;15207;42.182;24.308;2023-06-26T11:29:48;98667.13;;;30.35;41.36
27840;BME280;15207;42.182;24.308;2023-06-26T11:32:15;98667.13;;;30.35;41.24
27840;BME280;15207;42.182;24.308;2023-06-26T11:34:40;98661.97;;;30.54;40.87
27840;BME280;15207;42.182;24.308;2023-06-26T11:37:08;98669.78;;;30.68;42.77
27840;BME280;15207;42.182;24.308;2023-06-26T11:39:34;98651.25;;;30.63;41.36
27840;BME280;15207;42.182;24.308;2023-06-26T11:42:00;98654.66;;;30.81;42.99
27840;BME280;15207;42.182;24.308;2023-06-26T11:44:29;98640.84;;;30.81;41.74
27840;BME280;15207;42.182;24.308;2023-06-26T11:46:56;98655.78;;;30.90;41.57
27840;BME280;15207;42.182;24.308;2023-06-26T11:49:22;98660.00;;;31.19;39.78
27840;BME280;15207;42.182;24.308;2023-06-26T11:51:50;98651.22;;;31.32;39.75
27840;BME280;15207;42.182;24.308;2023-06-26T11:54:26;98645.63;;;31.22;39.89
27840;BME280;15207;42.182;24.308;2023-06-26T11:56:54;98648.91;;;30.29;41.51
27840;BME280;15207;42.182;24.308;2023-06-26T11:59:22;98664.72;;;29.68;43.04
27840;BME280;15207;42.182;24.308;2023-06-26T12:01:50;98666.47;;;29.19;43.55
27840;BME280;15207;42.182;24.308;2023-06-26T12:04:17;98662.59;;;29.15;44.02
27840;BME280;15207;42.182;24.308;2023-06-26T12:06:50;98673.22;;;29.06;44.97
27840;BME280;15207;42.182;24.308;2023-06-26T12:09:18;98663.16;;;29.17;44.73
27840;BME280;15207;42.182;24.308;2023-06-26T12:11:46;98659.19;;;29.08;45.15
27840;BME280;15207;42.182;24.308;2023-06-26T12:14:17;98657.19;;;28.98;44.81
27840;BME280;15207;42.182;24.308;2023-06-26T12:16:43;98661.91;;;29.02;45.43
27840;BME280;15207;42.182;24.308;2023-06-26T12:19:09;98661.22;;;28.90;45.12
27840;BME280;15207;42.182;24.308;2023-06-26T12:24:09;98660.53;;;29.33;43.62
27840;BME280;15207;42.182;24.308;2023-06-26T12:26:35;98660.75;;;29.26;43.41
27840;BME280;15207;42.182;24.308;2023-06-26T12:29:09;98663.16;;;29.17;44.96
27840;BME280;15207;42.182;24.308;2023-06-26T12:31:42;98649.50;;;29.33;44.57
27840;BME280;15207;42.182;24.308;2023-06-26T12:34:13;98647.28;;;29.57;42.75
27840;BME280;15207;42.182;24.308;2023-06-26T12:36:43;98632.41;;;29.96;42.58
27840;BME280;15207;42.182;24.308;2023-06-26T12:39:10;98656.63;;;29.56;44.76
27840;BME280;15207;42.182;24.308;2023-06-26T12:41:46;98667.94;;;29.54;44.29
27840;BME280;15207;42.182;24.308;2023-06-26T12:46:46;98660.44;;;29.50;44.69
27840;BME280;15207;42.182;24.308;2023-06-26T12:49:14;98666.84;;;29.00;45.96
27840;BME280;15207;42.182;24.308;2023-06-26T12:51:39;98672.97;;;28.41;46.92
27840;BME280;15207;42.182;24.308;2023-06-26T12:54:05;98667.75;;;28.22;47.04
27840;BME280;15207;42.182;24.308;2023-06-26T12:56:31;98669.84;;;28.15;47.47
27840;BME280;15207;42.182;24.308;2023-06-26T12:58:57;98677.84;;;27.99;49.58
27840;BME280;15207;42.182;24.308;2023-06-26T13:01:22;98665.44;;;27.96;49.12
27840;BME280;15207;42.182;24.308;2023-06-26T13:03:50;98661.13;;;27.83;48.94